Latest Weather Observations for Newcastle Nobbys

IDN60801

Issued at 5:35 pm EST Wednesday 1 October 2014 (issued every 30 minutes, with the page automatically refreshed every 10 minutes)

About weather observations | Map of weather stations | Latest weather observations for NSW | Other Formats
Station Details ID: 061055 Name: NEWCASTLE NOBBYS SIGNAL STATION AWS Lat: -32.92 Lon: 151.80 Height: 33.0 m
Data from the previous 72 hours. | See also: Recent months at Newcastle Nobbys
Date/Time
EST
Temp
°C
App
Temp
°C
Dew
Point
Rel
Hum
%
Delta-T
°C
Wind Press
QNH
hPa
Press
MSL
hPa
Rain
since 9 am
mm
Dir
 
Spd
km/h
Gust
km/h
Spd
kts
Gust
kts
01/05:30pm 16.4 8.8 5.7 49 5.2 SSE 35 41 19 22 - - 0.0
01/05:00pm 16.7 8.8 6.2 50 5.1 S 37 43 20 23 - - 0.0
01/04:30pm 16.6 8.0 4.6 45 5.7 SSE 39 44 21 24 - - 0.0
01/04:00pm 16.7 8.4 4.1 43 5.9 S 37 44 20 24 - - 0.0
01/03:30pm 17.1 9.0 5.1 45 5.7 SSE 37 41 20 22 - - 0.0
01/03:00pm 16.8 8.4 3.5 41 6.2 SSE 37 43 20 23 - - 0.0
01/02:30pm 16.9 8.2 3.9 42 6.1 SSE 39 48 21 26 - - 0.0
01/02:00pm 16.8 7.6 3.5 41 6.2 S 41 46 22 25 - - 0.0
01/01:30pm 17.2 9.1 5.2 45 5.8 S 37 44 20 24 - - 0.0
01/01:00pm 17.3 9.0 2.1 36 6.9 S 35 43 19 23 - - 0.0
01/12:30pm 17.7 8.7 2.5 36 6.9 S 39 44 21 24 - - 0.0
01/12:00pm 18.3 10.3 1.8 33 7.5 S 33 39 18 21 - - 0.0
01/11:30am 19.4 12.6 -2.2 23 9.1 SSW 24 41 13 22 - - 0.0
01/11:00am 18.8 12.3 2.6 34 7.5 SSW 26 35 14 19 - - 0.0
01/10:30am 18.0 10.9 1.1 32 7.5 S 28 35 15 19 - - 0.0
01/10:00am 17.1 7.8 4.8 44 5.9 S 43 52 23 28 - - 0.0
01/09:30am 17.4 10.0 6.9 50 5.2 SSW 35 48 19 26 - - 0.0
01/09:00am 17.1 8.2 5.1 45 5.7 SSW 41 57 22 31 - - 0.0
01/08:38am 16.9 7.3 4.6 44 5.8 SSW 44 65 24 35 - - 0.0
01/08:30am 17.2 7.7 4.9 44 5.9 SSW 44 57 24 31 - - 0.0
01/08:00am 17.3 7.7 4.6 43 6.0 SSW 44 59 24 32 - - 0.0
01/07:30am 17.6 8.0 4.6 42 6.2 SSW 44 57 24 31 - - 0.0
01/07:00am 18.2 10.1 7.0 48 5.6 SSW 39 50 21 27 - - 0.0
01/06:30am 18.9 11.9 9.9 56 4.8 S 37 46 20 25 - - 0.0
01/06:00am 18.8 10.9 10.9 60 4.3 S 43 52 23 28 - - 0.0
01/05:30am 19.1 11.7 12.4 65 3.7 S 43 52 23 28 - - 0.0
01/05:00am 19.7 11.5 10.4 55 5.0 S 44 57 24 31 - - 0.0
01/04:32am 21.3 15.0 7.5 41 7.1 SSW 30 46 16 25 - - 0.0
01/04:30am 21.4 18.0 6.1 37 7.7 W 13 15 7 8 - - 0.0
01/04:00am 20.0 17.8 8.0 46 6.2 W 9 13 5 7 - - 0.0
01/03:30am 21.1 18.8 7.3 41 7.1 W 9 9 5 5 - - 0.0
01/03:00am 22.0 20.3 8.2 41 7.3 WNW 7 9 4 5 - - 0.0
01/02:30am 22.2 19.3 8.0 40 7.4 NNW 13 15 7 8 - - 0.0
01/02:00am 22.4 20.4 8.5 41 7.4 NW 9 13 5 7 - - 0.0
01/01:30am 22.7 20.0 8.8 41 7.4 NW 13 15 7 8 - - 0.0
01/01:00am 23.1 20.4 8.8 40 7.6 WNW 13 15 7 8 - - 0.0
01/12:30am 23.1 20.2 9.5 42 7.4 NW 15 19 8 10 - - 0.0
01/12:00am 22.7 19.8 9.8 44 7.0 NNW 15 19 8 10 - - 0.0
 
Date/Time
EST
Temp
°C
App
Temp
°C
Dew
Point
Rel
Hum
%
Delta-T
°C
Wind Press
QNH
hPa
Press
MSL
hPa
Rain
since 9 am
mm
Dir
 
Spd
km/h
Gust
km/h
Spd
kts
Gust
kts
30/11:30pm 22.3 19.8 9.8 45 6.8 NW 13 19 7 10 - - 0.0
30/11:00pm 21.9 20.4 10.4 48 6.3 NNW 9 13 5 7 - - 0.0
30/10:30pm 21.9 20.1 10.7 49 6.2 NNW 11 13 6 7 - - 0.0
30/10:00pm 22.2 20.7 10.4 47 6.5 NNW 9 13 5 7 - - 0.0
30/09:30pm 23.1 21.7 10.9 46 6.8 NNW 9 13 5 7 - - 0.0
30/09:00pm 22.9 21.2 9.7 43 7.2 NNW 9 11 5 6 - - 0.0
30/08:30pm 23.3 21.9 9.7 42 7.4 NNW 7 11 4 6 - - 0.0
30/08:00pm 24.9 22.5 8.8 36 8.7 NNW 11 15 6 8 - - 0.0
30/07:30pm 24.8 22.6 9.5 38 8.4 N 11 11 6 6 - - 0.0
30/07:00pm 26.1 23.4 9.0 34 9.3 N 13 15 7 8 - - 0.0
30/06:30pm 26.6 23.9 9.0 33 9.6 N 13 17 7 9 - - 0.0
30/06:00pm 27.4 23.1 9.3 32 10.0 N 22 30 12 16 - - 0.0
30/05:30pm 28.8 23.5 8.5 28 11.1 NNW 26 32 14 17 - - 0.0
30/05:00pm 28.6 24.2 10.3 32 10.3 N 24 30 13 16 - - 0.0
30/04:30pm 28.6 25.3 10.8 33 10.1 N 19 26 10 14 - - 0.0
30/04:00pm 28.9 24.8 10.1 31 10.6 N 22 28 12 15 - - 0.0
30/03:30pm 28.3 24.8 10.9 34 9.9 NNW 20 32 11 17 - - 0.0
30/03:00pm 27.5 23.7 11.1 36 9.3 N 22 26 12 14 - - 0.0
30/02:30pm 23.7 21.9 16.0 62 4.7 NNE 20 24 11 13 - - 0.0
30/02:00pm 24.1 22.5 15.1 57 5.4 NE 17 24 9 13 - - 0.0
30/01:30pm 24.2 23.2 14.6 55 5.7 NE 13 15 7 8 - - 0.0
30/01:00pm 25.6 25.1 13.8 48 7.0 NNE 9 15 5 8 - - 0.0
30/12:30pm 26.8 25.7 13.2 43 8.0 N 11 15 6 8 - - 0.0
30/12:00pm 26.4 25.7 14.2 47 7.3 N 11 17 6 9 - - 0.0
30/11:30am 26.5 24.7 13.3 44 7.8 N 15 19 8 10 - - 0.0
30/11:00am 26.0 23.8 12.1 42 8.0 N 15 20 8 11 - - 0.0
30/10:30am 26.9 25.0 12.9 42 8.2 NNW 15 22 8 12 - - 0.0
30/10:00am 24.8 23.6 12.7 47 7.0 NNW 11 20 6 11 - - 0.0
30/09:30am 24.2 22.3 13.1 50 6.4 NNW 15 19 8 10 - - 0.0
30/09:00am 22.0 19.1 12.3 54 5.5 N 19 22 10 12 - - 0.0
30/08:30am 20.6 19.5 13.1 62 4.3 NNW 11 15 6 8 - - 0.0
30/08:00am 19.6 16.6 11.9 61 4.3 N 19 22 10 12 - - 0.0
30/07:30am 18.8 16.8 11.4 62 4.1 N 13 17 7 9 - - 0.0
30/07:00am 18.9 17.3 11.5 62 4.1 N 11 19 6 10 - - 0.0
30/06:30am 17.9 15.4 11.0 64 3.7 NNW 15 19 8 10 - - 0.0
30/06:00am 17.9 15.3 12.1 69 3.2 N 17 20 9 11 - - 0.0
30/05:30am 17.6 14.7 10.9 65 3.6 N 17 20 9 11 - - 0.0
30/05:00am 17.5 14.9 10.6 64 3.7 N 15 19 8 10 - - 0.0
30/04:30am 17.4 14.3 11.7 69 3.1 N 19 20 10 11 - - 0.0
30/04:00am 17.1 14.3 11.4 69 3.1 N 17 20 9 11 - - 0.0
30/03:30am 16.9 14.6 11.8 72 2.8 N 15 19 8 10 - - 0.0
30/03:00am 17.8 15.8 11.6 67 3.4 N 13 15 7 8 - - 0.0
30/02:30am 18.2 17.1 12.0 67 3.4 NNW 9 15 5 8 - - 0.0
30/02:00am 20.4 16.8 9.9 51 5.6 NNW 19 22 10 12 - - 0.0
30/01:30am 18.1 16.2 11.7 66 3.5 N 13 15 7 8 - - 0.0
30/01:00am 19.1 15.9 10.1 56 4.8 N 17 19 9 10 - - 0.0
30/12:30am 19.4 17.1 11.7 61 4.3 NNW 15 19 8 10 - - 0.0
30/12:00am 20.4 17.9 11.1 55 5.1 NW 15 20 8 11 - - 0.0
 
Date/Time
EST
Temp
°C
App
Temp
°C
Dew
Point
Rel
Hum
%
Delta-T
°C
Wind Press
QNH
hPa
Press
MSL
hPa
Rain
since 9 am
mm
Dir
 
Spd
km/h
Gust
km/h
Spd
kts
Gust
kts
29/11:30pm 19.4 18.4 12.2 63 4.0 N 9 11 5 6 - - 0.0
29/11:00pm 20.0 18.6 11.0 56 4.9 N 9 11 5 6 - - 0.0
29/10:30pm 19.7 19.3 12.9 65 3.8 N 7 9 4 5 - - 0.0
29/10:00pm 20.7 19.4 11.1 54 5.3 NNW 9 9 5 5 - - 0.0
29/09:30pm 20.6 20.3 12.6 60 4.5 NNW 6 7 3 4 - - 0.0
29/09:00pm 21.2 21.1 13.9 63 4.2 N 7 9 4 5 - - 0.0
29/08:30pm 22.0 21.7 12.8 56 5.3 N 6 7 3 4 - - 0.0
29/08:00pm 22.0 21.4 13.6 59 4.9 NNE 9 9 5 5 - - 0.0
29/07:30pm 22.7 21.8 10.5 46 6.7 N 6 9 3 5 - - 0.0
29/07:00pm 23.9 23.0 11.3 45 7.1 N 7 9 4 5 - - 0.0
29/06:30pm 26.2 24.1 8.2 32 9.7 N 9 11 5 6 - - 0.0
29/06:00pm 26.0 23.8 9.4 35 9.1 N 11 15 6 8 - - 0.0
29/05:30pm 26.8 24.2 9.2 33 9.7 NNW 13 19 7 10 - - 0.0
29/05:00pm 27.5 24.5 9.3 32 10.1 N 15 19 8 10 - - 0.0
29/04:30pm 27.8 22.8 9.6 32 10.1 NNW 26 33 14 18 - - 0.0
29/04:00pm 28.4 23.6 8.7 29 10.8 NNW 24 32 13 17 - - 0.0
29/03:30pm 28.8 24.4 9.0 29 11.0 NNW 22 30 12 16 - - 0.0
29/03:00pm 29.5 25.2 6.8 24 12.2 NW 19 28 10 15 - - 0.0
29/02:30pm 29.5 24.6 8.5 27 11.6 NW 24 33 13 18 - - 0.0
29/02:00pm 29.1 24.5 8.2 27 11.4 NNW 22 32 12 17 - - 0.0
29/01:30pm 28.6 23.5 7.8 27 11.3 NW 24 35 13 19 - - 0.0
29/01:00pm 28.7 24.3 6.7 25 11.7 NNW 19 26 10 14 - - 0.0
29/12:30pm 28.2 22.5 5.1 23 11.9 NW 24 33 13 18 - - 0.0
29/12:00pm 28.0 21.9 6.7 26 11.3 NW 28 39 15 21 - - 0.0
29/11:30am 27.3 21.3 7.2 28 10.7 NW 28 35 15 19 - - 0.0
29/11:00am 26.6 20.7 7.6 30 10.1 NW 28 37 15 20 - - 0.0
29/10:30am 25.2 19.5 8.2 34 9.1 NW 28 43 15 23 - - 0.0
29/10:00am 24.0 19.4 9.6 40 7.9 NW 24 33 13 18 - - 0.0
29/09:30am 22.3 17.8 10.1 46 6.7 NNW 24 32 13 17 - - 0.0
29/09:00am 21.6 17.0 9.5 46 6.5 NNW 24 32 13 17 - - 0.0
29/08:30am 20.4 16.6 9.9 51 5.6 NNW 20 30 11 16 - - 0.0
29/08:00am 18.4 14.7 10.3 59 4.3 NNW 20 28 11 15 - - 0.0
29/07:30am 16.9 13.0 9.6 62 3.8 NNW 20 26 11 14 - - 0.0
29/07:00am 15.6 11.9 9.3 66 3.3 NNW 19 24 10 13 - - 0.0
29/06:30am 14.3 11.3 10.5 78 2.0 NNW 17 22 9 12 - - 0.0
29/06:00am 13.5 11.2 10.5 82 1.6 NNW 13 17 7 9 - - 0.0
29/05:30am 13.8 10.5 10.8 82 1.6 NNW 19 20 10 11 - - 0.0
29/05:00am 13.8 10.5 10.8 82 1.6 NNW 19 22 10 12 - - 0.0
29/04:30am 14.2 10.8 11.4 83 1.5 N 20 22 11 12 - - 0.0
29/04:00am 14.5 12.2 11.7 83 1.5 N 15 19 8 10 - - 0.0
29/03:30am 14.0 12.7 11.3 84 1.4 NNW 9 15 5 8 - - 0.0
29/03:00am 14.4 12.8 11.6 83 1.5 NW 11 15 6 8 - - 0.0
29/02:30am 14.6 11.5 11.7 83 1.6 NNW 19 26 10 14 - - 0.0
29/02:00am 15.0 13.8 12.7 86 1.3 NNW 11 13 6 7 - - 0.0
29/01:30am 15.0 12.9 12.3 84 1.5 N 15 17 8 9 - - 0.0
29/01:00am 15.3 13.4 11.7 79 1.9 N 13 15 7 8 - - 0.0
29/12:30am 15.7 14.1 11.7 77 2.2 N 11 17 6 9 - - 0.0
29/12:00am 15.9 14.4 11.9 77 2.2 N 11 17 6 9 - - 0.0
 
Date/Time
EST
Temp
°C
App
Temp
°C
Dew
Point
Rel
Hum
%
Delta-T
°C
Wind Press
QNH
hPa
Press
MSL
hPa
Rain
since 9 am
mm
Dir
 
Spd
km/h
Gust
km/h
Spd
kts
Gust
kts
28/11:30pm 16.1 14.9 11.7 75 2.4 N 9 13 5 7 - - 0.0
28/11:00pm 16.5 14.4 12.3 76 2.3 NNE 15 19 8 10 - - 0.0
28/10:30pm 16.7 12.7 11.8 73 2.7 NNE 24 26 13 14 - - 0.0
28/10:00pm 16.8 14.6 12.1 74 2.6 NNE 15 20 8 11 - - 0.0
28/09:30pm 17.2 13.8 12.5 74 2.6 NNE 22 30 12 16 - - 0.0
28/09:00pm 17.1 14.2 12.4 74 2.6 NE 19 24 10 13 - - 0.0
28/08:30pm 17.4 12.9 12.5 73 2.7 NE 28 37 15 20 - - 0.0
28/08:00pm 17.7 14.0 12.8 73 2.7 NE 24 35 13 19 - - 0.0
28/07:30pm 18.0 13.7 13.1 73 2.8 NE 28 37 15 20 - - 0.0
28/07:00pm 18.2 13.5 13.1 72 2.9 NE 30 37 16 20 - - 0.0
28/06:30pm 18.2 14.7 13.3 73 2.8 NE 24 33 13 18 - - 0.0
28/06:00pm 18.5 15.3 13.1 71 3.0 ENE 22 28 12 15 - - 0.0

Other Formats:

Comma delimited format used in spreadsheet applications
http://www.bom.gov.au/fwo/IDN60801/IDN60801.94774.axf

JavaScript Object Notation format (JSON) in row-major order
http://www.bom.gov.au/fwo/IDN60801/IDN60801.94774.json